createdAt,value
2019-05-06T00:01:04.764Z,71.70
2019-05-06T00:03:34.382Z,71.70
2019-05-06T00:06:03.953Z,71.70
2019-05-06T00:08:34.547Z,71.60
2019-05-06T00:11:02.363Z,71.30
2019-05-06T00:13:30.618Z,71.40
2019-05-06T00:15:58.856Z,71.80
2019-05-06T00:18:27.112Z,71.50
2019-05-06T00:20:57.543Z,71.60
2019-05-06T00:23:27.018Z,71.70
2019-05-06T00:26:28.337Z,71.50
2019-05-06T00:28:51.234Z,71.60
2019-05-06T00:31:21.155Z,71.50
2019-05-06T00:33:49.428Z,71.80
2019-05-06T00:36:19.314Z,72.00
2019-05-06T00:38:54.603Z,72.00
2019-05-06T00:41:38.521Z,72.50
2019-05-06T00:44:06.769Z,72.40
2019-05-06T00:46:35.036Z,72.10
2019-05-06T00:49:03.887Z,72.30
2019-05-06T00:51:33.926Z,72.20
2019-05-06T00:54:04.132Z,72.40
2019-05-06T00:56:33.987Z,72.90
2019-05-06T00:59:03.684Z,72.70
2019-05-06T01:01:34.260Z,72.70
2019-05-06T01:04:04.581Z,73.20
2019-05-06T01:06:34.429Z,73.00
2019-05-06T01:09:04.567Z,73.00
2019-05-06T01:11:34.606Z,73.00
2019-05-06T01:14:10.651Z,73.10
2019-05-06T01:16:38.951Z,73.10
2019-05-06T01:19:07.205Z,73.10
2019-05-06T01:21:35.467Z,72.90
2019-05-06T01:24:04.129Z,72.90
2019-05-06T01:26:33.805Z,72.90
2019-05-06T01:29:03.885Z,73.30
2019-05-06T01:31:40.568Z,73.60
2019-05-06T01:34:04.286Z,74.20
2019-05-06T01:36:34.366Z,74.50
2019-05-06T01:39:06.886Z,74.60
2019-05-06T01:41:48.961Z,75.30
2019-05-06T01:44:17.231Z,74.60
2019-05-06T01:46:45.479Z,74.80
2019-05-06T01:49:13.894Z,75.20
2019-05-06T01:51:43.796Z,75.70
2019-05-06T01:54:14.182Z,75.90
2019-05-06T01:56:44.202Z,76.00
2019-05-06T01:59:14.019Z,76.30
2019-05-06T02:01:54.953Z,76.50
2019-05-06T02:04:13.846Z,76.60
2019-05-06T02:06:43.809Z,76.50
2019-05-06T02:09:14.602Z,76.60
2019-05-06T02:11:44.234Z,76.70
2019-05-06T02:14:13.977Z,76.80
2019-05-06T02:16:43.645Z,76.50
2019-05-06T02:19:11.979Z,76.50
2019-05-06T02:21:43.686Z,76.50
2019-05-06T02:24:13.582Z,76.40
2019-05-06T02:26:43.622Z,76.30
2019-05-06T02:29:15.192Z,76.40
2019-05-06T02:31:48.301Z,76.20
2019-05-06T02:34:36.484Z,76.10
2019-05-06T02:37:08.103Z,76.30
2019-05-06T02:39:36.361Z,76.30
2019-05-06T02:42:06.338Z,76.10
2019-05-06T02:44:34.600Z,75.80
2019-05-06T02:47:23.005Z,75.60
2019-05-06T02:49:53.613Z,75.80
2019-05-06T02:52:22.892Z,75.80
2019-05-06T02:54:53.728Z,75.90
2019-05-06T02:57:23.810Z,75.60
2019-05-06T02:59:54.834Z,75.90
2019-05-06T03:02:38.729Z,75.90
2019-05-06T03:04:52.843Z,75.70
2019-05-06T03:07:23.301Z,75.60
2019-05-06T03:09:53.216Z,75.30
2019-05-06T03:12:22.823Z,75.10
2019-05-06T03:14:53.274Z,75.20
2019-05-06T03:17:23.530Z,75.00
2019-05-06T03:19:53.180Z,74.80
2019-05-06T03:22:27.799Z,74.80
2019-05-06T03:24:57.640Z,74.70
2019-05-06T03:27:25.898Z,74.60
2019-05-06T03:29:54.126Z,74.40
2019-05-06T03:32:29.799Z,74.10
2019-05-06T03:35:16.453Z,74.00
2019-05-06T03:37:23.934Z,74.10
2019-05-06T03:39:53.024Z,74.20
2019-05-06T03:42:22.984Z,74.00
2019-05-06T03:44:53.546Z,74.10
2019-05-06T03:47:23.689Z,74.00
2019-05-06T03:49:54.645Z,74.00
2019-05-06T03:52:23.402Z,73.80
2019-05-06T03:54:53.702Z,74.50
2019-05-06T03:57:23.147Z,73.70
2019-05-06T03:59:52.897Z,73.70
2019-05-06T04:02:24.139Z,73.70
2019-05-06T04:04:55.850Z,73.00
2019-05-06T04:07:23.387Z,72.60
2019-05-06T04:09:53.688Z,71.70
2019-05-06T04:12:23.417Z,71.30
2019-05-06T04:14:54.016Z,71.20
2019-05-06T04:17:27.720Z,70.60
2019-05-06T04:19:57.613Z,70.80
2019-05-06T04:22:44.126Z,71.00
2019-05-06T04:25:30.470Z,71.30
2019-05-06T04:28:02.929Z,71.40
2019-05-06T04:30:33.185Z,71.70
2019-05-06T04:33:03.113Z,70.80
2019-05-06T04:35:30.370Z,71.50
2019-05-06T04:37:58.613Z,70.60
2019-05-06T04:40:26.882Z,70.30
2019-05-06T04:42:55.467Z,70.30
2019-05-06T04:45:23.943Z,70.20
2019-05-06T04:47:53.823Z,70.20
2019-05-06T04:50:24.238Z,70.20
2019-05-06T04:53:05.680Z,70.30
2019-05-06T04:55:34.774Z,70.50
2019-05-06T04:58:05.637Z,70.40
2019-05-06T05:00:34.277Z,70.30
2019-05-06T05:03:03.007Z,69.70
2019-05-06T05:05:33.149Z,69.40
2019-05-06T05:08:02.472Z,68.90
2019-05-06T05:10:38.866Z,68.80
2019-05-06T05:13:08.765Z,69.20
2019-05-06T05:15:56.977Z,70.20
2019-05-06T05:18:31.860Z,71.40
2019-05-06T05:20:59.879Z,71.80
2019-05-06T05:23:28.118Z,71.50
2019-05-06T05:25:56.351Z,71.10
2019-05-06T05:28:25.051Z,70.70
2019-05-06T05:30:53.327Z,70.50
2019-05-06T05:33:22.467Z,70.30
2019-05-06T05:35:52.563Z,70.40
2019-05-06T05:38:22.771Z,70.40
2019-05-06T05:40:52.436Z,70.70
2019-05-06T05:43:34.815Z,70.80
2019-05-06T05:46:03.266Z,69.70
2019-05-06T05:48:33.143Z,69.70
2019-05-06T05:51:03.265Z,69.80
2019-05-06T05:53:32.923Z,69.90
2019-05-06T05:56:02.569Z,69.50
2019-05-06T05:58:33.012Z,69.60
2019-05-06T06:01:00.915Z,70.10
2019-05-06T06:03:29.213Z,69.80
2019-05-06T06:05:57.460Z,70.00
2019-05-06T06:08:25.716Z,69.90
2019-05-06T06:11:13.663Z,69.70
2019-05-06T06:13:43.361Z,69.00
2019-05-06T06:16:29.982Z,68.60
2019-05-06T06:18:59.980Z,68.10
2019-05-06T06:21:32.024Z,68.60
2019-05-06T06:24:12.567Z,68.50
2019-05-06T06:26:42.818Z,68.70
2019-05-06T06:29:12.512Z,68.70
2019-05-06T06:31:42.827Z,68.60
2019-05-06T06:34:24.624Z,69.00
2019-05-06T06:36:54.519Z,67.70
2019-05-06T06:39:32.544Z,66.80
2019-05-06T06:42:00.226Z,66.40
2019-05-06T06:44:33.115Z,66.10
2019-05-06T06:47:02.071Z,65.60
2019-05-06T06:49:32.743Z,64.70
2019-05-06T06:52:02.742Z,63.80
2019-05-06T06:54:32.317Z,64.00
2019-05-06T06:57:09.198Z,64.00
2019-05-06T06:59:49.295Z,64.50
2019-05-06T07:02:22.977Z,64.80
2019-05-06T07:04:58.844Z,63.60
2019-05-06T07:07:41.410Z,63.60
2019-05-06T07:09:58.730Z,63.30
2019-05-06T07:12:26.996Z,63.60
2019-05-06T07:15:02.284Z,62.50
2019-05-06T07:17:32.854Z,62.00
2019-05-06T07:20:18.805Z,61.30
2019-05-06T07:22:47.053Z,59.60
2019-05-06T07:25:15.309Z,59.80
2019-05-06T07:27:43.551Z,59.50
2019-05-06T07:30:12.524Z,59.00
2019-05-06T07:32:42.373Z,58.10
2019-05-06T07:35:12.730Z,58.10
2019-05-06T07:37:42.281Z,58.10
2019-05-06T07:40:12.518Z,58.60
2019-05-06T07:42:43.045Z,58.10
2019-05-06T07:45:13.143Z,58.20
2019-05-06T07:47:43.069Z,57.90
2019-05-06T07:50:13.040Z,58.60
2019-05-06T07:52:42.934Z,58.60
2019-05-06T07:55:11.992Z,56.30
2019-05-06T07:57:42.293Z,55.40
2019-05-06T08:00:12.453Z,55.60
2019-05-06T08:02:42.493Z,56.00
2019-05-06T08:05:12.609Z,56.10
2019-05-06T08:07:42.255Z,55.60
2019-05-06T08:10:10.347Z,55.60
2019-05-06T08:12:38.605Z,55.60
2019-05-06T08:15:07.480Z,55.20
2019-05-06T08:17:37.398Z,54.20
2019-05-06T08:20:06.804Z,53.20
2019-05-06T08:22:52.988Z,52.60
2019-05-06T08:25:25.934Z,52.40
2019-05-06T08:27:54.186Z,52.90
2019-05-06T08:30:23.096Z,52.50
2019-05-06T08:32:52.852Z,52.40
2019-05-06T08:35:22.770Z,51.10
2019-05-06T08:37:53.153Z,48.60
2019-05-06T08:40:22.734Z,49.40
2019-05-06T08:42:53.126Z,49.00
2019-05-06T08:45:22.048Z,49.20
2019-05-06T08:47:52.379Z,48.30
2019-05-06T08:50:38.786Z,47.60
2019-05-06T08:53:23.967Z,47.60
2019-05-06T08:55:52.873Z,46.90
2019-05-06T08:58:23.004Z,46.60
2019-05-06T09:00:54.480Z,45.90
2019-05-06T09:03:22.867Z,45.40
2019-05-06T09:05:54.107Z,44.40
2019-05-06T09:08:23.576Z,44.90
2019-05-06T09:10:52.401Z,45.20
2019-05-06T09:13:23.005Z,45.00
2019-05-06T09:15:52.535Z,45.10
2019-05-06T09:18:20.737Z,46.40
2019-05-06T09:20:50.663Z,46.00
2019-05-06T09:23:19.422Z,45.80
2019-05-06T09:25:47.787Z,44.80
2019-05-06T09:28:17.681Z,46.00
2019-05-06T09:30:47.592Z,45.70
2019-05-06T09:33:17.619Z,43.80
2019-05-06T09:35:45.928Z,44.00
2019-05-06T09:38:14.289Z,44.00
2019-05-06T09:40:43.330Z,43.10
2019-05-06T09:43:13.180Z,43.20
2019-05-06T09:45:42.556Z,42.50
2019-05-06T09:48:18.592Z,43.20
2019-05-06T09:50:48.230Z,42.90
2019-05-06T09:53:18.218Z,43.00
2019-05-06T09:55:52.285Z,43.50
2019-05-06T09:58:22.749Z,43.90
2019-05-06T10:00:52.356Z,43.50
2019-05-06T10:03:22.569Z,48.80
2019-05-06T10:05:52.927Z,42.90
2019-05-06T10:08:22.771Z,43.70
2019-05-06T10:10:56.839Z,43.40
2019-05-06T10:13:21.519Z,42.40
2019-05-06T10:15:51.937Z,42.90
2019-05-06T10:18:22.491Z,66.70
2019-05-06T10:20:50.495Z,70.70
2019-05-06T10:23:18.889Z,42.50
2019-05-06T10:25:47.188Z,42.60
2019-05-06T10:28:33.596Z,41.90
2019-05-06T10:31:03.893Z,42.00
2019-05-06T10:33:33.404Z,41.30
2019-05-06T10:36:05.099Z,41.70
2019-05-06T10:38:55.005Z,42.70
2019-05-06T10:41:32.799Z,41.60
2019-05-06T10:44:19.156Z,40.60
2019-05-06T10:46:47.474Z,40.70
2019-05-06T10:49:16.111Z,40.40
2019-05-06T10:51:48.763Z,40.30
2019-05-06T10:54:17.183Z,39.90
2019-05-06T10:56:53.764Z,39.00
2019-05-06T10:59:22.059Z,39.30
2019-05-06T11:01:52.592Z,39.50
2019-05-06T11:04:22.521Z,39.70
2019-05-06T11:06:52.471Z,40.50
2019-05-06T11:09:22.670Z,41.10
2019-05-06T11:11:51.571Z,41.90
2019-05-06T11:14:22.729Z,41.90
2019-05-06T11:16:50.656Z,42.20
2019-05-06T11:19:22.414Z,42.50
2019-05-06T11:22:08.980Z,42.80
2019-05-06T11:24:42.196Z,43.10
2019-05-06T11:27:28.981Z,41.10
2019-05-06T11:29:55.891Z,41.50
2019-05-06T11:32:44.461Z,41.50
2019-05-06T11:35:43.142Z,40.60
2019-05-06T11:38:13.208Z,41.90
2019-05-06T11:40:42.069Z,39.70
2019-05-06T11:43:11.991Z,38.70
2019-05-06T11:45:42.606Z,39.00
2019-05-06T11:48:14.374Z,38.30
2019-05-06T11:50:54.232Z,40.50
2019-05-06T11:53:26.615Z,41.30
2019-05-06T11:56:05.374Z,40.40
2019-05-06T11:58:49.156Z,40.70
2019-05-06T12:01:20.678Z,40.30
2019-05-06T12:03:49.135Z,40.70
2019-05-06T12:06:34.059Z,40.80
2019-05-06T12:11:58.148Z,40.90
2019-05-06T12:14:29.603Z,40.90
2019-05-06T12:20:03.112Z,41.60
2019-05-06T12:22:42.389Z,41.20
2019-05-06T12:25:23.607Z,41.30
2019-05-06T12:28:02.869Z,42.30
2019-05-06T12:30:42.803Z,42.10
2019-05-06T12:36:17.164Z,41.40
2019-05-06T12:39:15.575Z,41.00
2019-05-06T12:44:42.919Z,41.40
2019-05-06T12:50:02.777Z,42.20
2019-05-06T12:52:32.328Z,42.20
2019-05-06T12:55:18.254Z,41.90
2019-05-06T12:57:37.265Z,41.40
2019-05-06T13:00:07.371Z,41.00
2019-05-06T13:02:39.945Z,41.20
2019-05-06T13:05:08.278Z,41.90
2019-05-06T13:07:52.813Z,41.10
2019-05-06T13:10:39.094Z,41.40
2019-05-06T13:16:17.732Z,40.40
2019-05-06T13:18:56.811Z,40.30
2019-05-06T13:21:35.930Z,41.20
2019-05-06T13:24:32.574Z,41.20
2019-05-06T13:32:37.178Z,41.10
2019-05-06T13:35:17.681Z,41.90
2019-05-06T13:37:53.119Z,41.60
2019-05-06T13:40:18.968Z,42.50
2019-05-06T13:42:58.523Z,43.80
2019-05-06T13:51:34.262Z,44.00
2019-05-06T13:54:02.749Z,43.40
2019-05-06T13:56:33.329Z,44.30
2019-05-06T13:59:01.464Z,43.10
2019-05-06T14:01:44.265Z,42.10
2019-05-06T14:04:14.400Z,42.70
2019-05-06T14:06:43.381Z,43.90
2019-05-06T14:09:28.054Z,43.30
2019-05-06T14:11:42.156Z,42.60
2019-05-06T14:14:12.590Z,43.60
2019-05-06T14:16:42.632Z,43.80
2019-05-06T14:19:12.998Z,43.80
2019-05-06T14:21:43.241Z,43.10
2019-05-06T14:24:13.316Z,43.70
2019-05-06T14:26:44.801Z,43.80
2019-05-06T14:29:26.577Z,42.00
2019-05-06T14:31:56.802Z,41.90
2019-05-06T14:34:25.109Z,42.00
2019-05-06T14:36:53.578Z,42.40
2019-05-06T14:39:42.795Z,42.80
2019-05-06T14:41:57.219Z,43.40
2019-05-06T14:44:28.345Z,43.00
2019-05-06T14:47:07.390Z,43.20
2019-05-06T14:49:35.743Z,43.10
2019-05-06T14:52:04.053Z,42.70
2019-05-06T14:54:33.109Z,42.70
2019-05-06T14:57:12.346Z,42.50
2019-05-06T14:59:42.203Z,43.60
2019-05-06T15:02:13.066Z,43.20
2019-05-06T15:04:43.191Z,43.10
2019-05-06T15:07:12.746Z,41.80
2019-05-06T15:09:55.359Z,42.60
2019-05-06T15:12:12.901Z,43.20
2019-05-06T15:14:42.482Z,43.50
2019-05-06T15:17:10.781Z,43.00
2019-05-06T15:19:39.139Z,42.60
2019-05-06T15:22:07.391Z,42.50
2019-05-06T15:24:35.687Z,42.50
2019-05-06T15:27:03.963Z,43.20
2019-05-06T15:29:32.258Z,43.60
2019-05-06T15:32:02.721Z,43.50
2019-05-06T15:34:44.868Z,42.10
2019-05-06T15:37:14.809Z,42.00
2019-05-06T15:39:43.770Z,43.50
2019-05-06T15:42:12.916Z,45.90
2019-05-06T15:44:42.531Z,47.00
2019-05-06T15:47:13.038Z,47.90
2019-05-06T15:49:41.993Z,48.50
2019-05-06T15:52:12.401Z,49.00
2019-05-06T15:54:42.890Z,49.40
2019-05-06T15:57:10.828Z,48.80
2019-05-06T15:59:41.271Z,48.80
2019-05-06T16:02:09.065Z,48.00
2019-05-06T16:04:37.347Z,48.20
2019-05-06T16:07:05.635Z,47.70
2019-05-06T16:09:33.920Z,48.50
2019-05-06T16:12:03.052Z,49.20
2019-05-06T16:14:34.089Z,49.50
2019-05-06T16:17:23.597Z,49.60
2019-05-06T16:19:50.937Z,48.20
2019-05-06T16:22:19.177Z,48.10
2019-05-06T16:24:53.036Z,47.60
2019-05-06T16:27:22.962Z,46.40
2019-05-06T16:29:52.972Z,46.60
2019-05-06T16:32:21.999Z,46.90
2019-05-06T16:34:52.407Z,45.00
2019-05-06T16:37:22.277Z,44.40
2019-05-06T16:39:52.477Z,45.20
2019-05-06T16:42:22.436Z,45.00
2019-05-06T16:44:52.691Z,45.00
2019-05-06T16:47:38.227Z,45.40
2019-05-06T16:50:08.901Z,45.40
2019-05-06T16:52:37.148Z,45.10
2019-05-06T16:55:06.331Z,44.30
2019-05-06T16:57:34.663Z,44.40
2019-05-06T17:00:05.562Z,44.00
2019-05-06T17:02:57.919Z,43.80
2019-05-06T17:05:37.379Z,42.90
2019-05-06T17:08:05.623Z,43.60
2019-05-06T17:10:33.868Z,43.50
2019-05-06T17:13:02.920Z,43.70
2019-05-06T17:15:32.173Z,43.90
2019-05-06T17:18:02.850Z,44.40
2019-05-06T17:20:32.584Z,44.60
2019-05-06T17:23:02.920Z,45.00
2019-05-06T17:25:32.904Z,45.60
2019-05-06T17:28:02.492Z,46.50
2019-05-06T17:30:50.982Z,47.50
2019-05-06T17:33:26.458Z,48.20
2019-05-06T17:35:54.719Z,49.00
2019-05-06T17:38:24.607Z,49.30
2019-05-06T17:40:52.842Z,49.50
2019-05-06T17:43:22.484Z,50.20
2019-05-06T17:46:01.976Z,50.50
2019-05-06T17:48:30.155Z,50.70
2019-05-06T17:51:16.282Z,50.90
2019-05-06T17:53:49.175Z,50.90
2019-05-06T17:56:17.419Z,51.10
2019-05-06T17:58:45.670Z,51.60
2019-05-06T18:01:15.570Z,52.10
2019-05-06T18:03:43.827Z,52.70
2019-05-06T18:06:14.154Z,53.10
2019-05-06T18:08:43.297Z,53.40
2019-05-06T18:11:12.899Z,53.70
2019-05-06T18:13:41.428Z,54.00
2019-05-06T18:16:09.688Z,54.10
2019-05-06T18:18:37.958Z,54.00
2019-05-06T18:21:06.218Z,53.90
2019-05-06T18:23:34.523Z,53.80
2019-05-06T18:26:03.242Z,53.70
2019-05-06T18:28:32.689Z,54.00
2019-05-06T18:31:03.145Z,53.80
2019-05-06T18:33:32.619Z,54.00
2019-05-06T18:36:02.567Z,54.40
2019-05-06T18:38:33.515Z,54.70
2019-05-06T18:41:01.995Z,55.10
2019-05-06T18:43:33.203Z,55.40
2019-05-06T18:46:02.804Z,55.40
2019-05-06T18:48:34.498Z,55.60
2019-05-06T18:51:03.009Z,56.60
2019-05-06T18:53:37.311Z,56.00
2019-05-06T18:56:05.555Z,56.10
2019-05-06T18:58:33.825Z,56.20
2019-05-06T19:01:03.953Z,56.40
2019-05-06T19:03:36.440Z,57.10
2019-05-06T19:06:04.672Z,56.70
2019-05-06T19:08:43.605Z,56.80
2019-05-06T19:11:13.626Z,57.00
2019-05-06T19:13:41.884Z,56.90
2019-05-06T19:16:10.331Z,57.20
2019-05-06T19:19:06.016Z,57.30
2019-05-06T19:22:13.771Z,57.30
2019-05-06T19:34:14.046Z,57.50
2019-05-06T19:36:46.944Z,57.80
2019-05-06T19:39:15.387Z,57.60
2019-05-06T19:41:43.641Z,57.70
2019-05-06T19:44:12.864Z,57.90
2019-05-06T19:46:42.418Z,57.90
2019-05-06T19:49:10.781Z,58.20
2019-05-06T19:51:39.070Z,58.20
2019-05-06T19:54:07.331Z,58.50
2019-05-06T19:56:35.636Z,58.80
2019-05-06T19:59:03.887Z,59.00
2019-05-06T20:01:32.373Z,59.30
2019-05-06T20:04:02.571Z,59.70
2019-05-06T20:06:32.483Z,60.20
2019-05-06T20:09:02.446Z,60.80
2019-05-06T20:11:38.369Z,61.20
2019-05-06T20:14:06.625Z,61.60
2019-05-06T20:16:34.885Z,61.80
2019-05-06T20:19:03.137Z,61.90
2019-05-06T20:21:32.841Z,62.00
2019-05-06T20:24:02.288Z,62.10
2019-05-06T20:26:32.447Z,62.30
2019-05-06T20:29:02.174Z,62.50
2019-05-06T20:31:32.146Z,62.60
2019-05-06T20:34:02.287Z,63.00
2019-05-06T20:36:33.053Z,63.20
2019-05-06T20:42:04.606Z,64.20
2019-05-06T20:47:25.520Z,64.50
2019-05-06T20:49:53.837Z,64.70
2019-05-06T20:52:30.475Z,64.80
2019-05-06T20:54:58.456Z,64.70
2019-05-06T20:57:38.569Z,64.60
2019-05-06T21:00:19.081Z,64.80
2019-05-06T21:02:47.367Z,65.00
2019-05-06T21:05:15.618Z,65.00
2019-05-06T21:07:43.894Z,64.90
2019-05-06T21:10:12.727Z,65.10
2019-05-06T21:12:42.227Z,65.00
2019-05-06T21:15:13.174Z,65.20
2019-05-06T21:17:41.956Z,64.90
2019-05-06T21:20:10.465Z,65.10
2019-05-06T21:22:38.780Z,65.20
2019-05-06T21:25:07.944Z,65.50
2019-05-06T21:27:36.850Z,65.70
2019-05-06T21:30:07.877Z,65.70
2019-05-06T21:32:36.136Z,65.70
2019-05-06T21:35:05.672Z,66.00
2019-05-06T21:45:46.475Z,67.80
2019-05-06T22:20:03.210Z,67.50
2019-05-06T22:38:21.707Z,67.30
2019-05-06T22:49:32.158Z,68.10
2019-05-06T22:55:32.945Z,68.30
2019-05-06T22:57:46.791Z,68.30
2019-05-06T23:06:17.759Z,68.60
2019-05-06T23:09:03.973Z,68.80
2019-05-06T23:20:15.313Z,68.90
2019-05-06T23:23:06.774Z,69.00
2019-05-06T23:28:45.690Z,69.30
2019-05-06T23:34:46.877Z,69.30
2019-05-06T23:37:30.576Z,69.40
2019-05-06T23:54:58.608Z,70.10
